Terminal Aerodrome Forecast
Issued by NWS

Home | Current Version | Previous Version | Text Only | Print | Product List | Glossary On
Versions: 1 2 3 4 5 6 7 8 9 10 11 12 13 14 15 16 17 18 19 20 21 22 23 24 25 26 27 28 29 30 31 32 33 34 35 36 37 38 39 40
000
FTUS42 KGSP 290936 AAA
TAFHKY
TAF AMD
KHKY 290936Z 2910/3006 00000KT 5SM BR OVC005
      TEMPO 2910/2913 00000KT 1/2SM FG VV003
     FM291300 00000KT 6SM BR BKN016
     FM291900 20005KT P6SM BKN070 PROB30 2919/2923 4SM TSRA
      BKN040CB=

USA.gov is the U.S. government's official web portal to all federal, state and local government web resources and services.